Aviation Digital Data Service (ADDS)

Output produced by METARs form (0248 UTC 14 December 2018)
found at http://aviationweather.gov/metar/data/
 
METAR text: EPRZ 140230Z 32004KT 9999 OVC013 M01/M03 Q1022
Conditions at: EPRZ (RZESZOW/JASIONKA, PL) observed 0230 UTC 14 December 2018
Temperature: -1.0°C (30°F)
Dewpoint: -3.0°C (27°F) [RH = 86%]
Pressure (altimeter): 30.18 inches Hg (1022.0 mb)
Winds: from the NW (320 degrees) at 5 MPH (4 knots; 2.1 m/s)
Visibility: 6 or more miles (10+ km)
Ceiling: 1300 feet AGL
Clouds: overcast cloud deck at 1300 feet AGL
Weather: no significant weather observed at this time

METAR text: EPRZ 140200Z 33004KT 9999 OVC013 M01/M03 Q1022
Conditions at: EPRZ (RZESZOW/JASIONKA, PL) observed 0200 UTC 14 December 2018
Temperature: -1.0°C (30°F)
Dewpoint: -3.0°C (27°F) [RH = 86%]
Pressure (altimeter): 30.18 inches Hg (1022.0 mb)
Winds: from the NNW (330 degrees) at 5 MPH (4 knots; 2.1 m/s)
Visibility: 6 or more miles (10+ km)
Ceiling: 1300 feet AGL
Clouds: overcast cloud deck at 1300 feet AGL
Weather: no significant weather observed at this time

Forecast for: EPRZ (RZESZOW/JASIONKA, PL)
Text: TAF EPRZ 132330Z 1400/1424 35006KT 8000 SCT007 OVC017
Forecast period: 0000 UTC 14 December 2018 to 0000 UTC 15 December 2018
Forecast type: FROM: standard forecast or significant change
Winds: from the N (350 degrees) at 7 MPH (6 knots; 3.1 m/s)
Visibility: 5 miles (8 km)
Ceiling: 1700 feet AGL
Clouds: scattered clouds at 700 feet AGL
overcast cloud deck at 1700 feet AGL
Weather: no significant weather forecast for this period
Text: TEMPO 1400/1424 2000 -SN BR BKN004 OVC010
Forecast period: 0000 UTC 14 December 2018 to 0000 UTC 15 December 2018
Forecast type: TEMPORARY: The following changes expected for less than half the time period
Visibility: 1.24 miles (2.00 km)
Ceiling: 400 feet AGL
Clouds: broken clouds at 400 feet AGL
overcast cloud deck at 1000 feet AGL
Weather: -SN BR  (light snow, mist)